sensor_id;sensor_type;location;lat;lon;timestamp;temperature;humidity
22747;DHT22;11540;52.130;5.648;2022-08-19T00:02:23;17.80;99.90
22747;DHT22;11540;52.130;5.648;2022-08-19T00:04:49;17.80;99.90
22747;DHT22;11540;52.130;5.648;2022-08-19T00:07:18;17.80;99.90
22747;DHT22;11540;52.130;5.648;2022-08-19T00:09:44;17.60;99.90
22747;DHT22;11540;52.130;5.648;2022-08-19T00:12:10;17.50;99.90
22747;DHT22;11540;52.130;5.648;2022-08-19T00:14:36;17.40;99.90
22747;DHT22;11540;52.130;5.648;2022-08-19T00:17:04;17.30;99.90
22747;DHT22;11540;52.130;5.648;2022-08-19T00:19:30;17.20;99.90
22747;DHT22;11540;52.130;5.648;2022-08-19T00:21:56;17.10;99.90
22747;DHT22;11540;52.130;5.648;2022-08-19T00:24:22;17.00;99.90
22747;DHT22;11540;52.130;5.648;2022-08-19T00:26:48;17.00;99.90
22747;DHT22;11540;52.130;5.648;2022-08-19T00:29:16;16.90;99.90
22747;DHT22;11540;52.130;5.648;2022-08-19T00:31:43;16.90;99.90
22747;DHT22;11540;52.130;5.648;2022-08-19T00:34:10;16.80;99.90
22747;DHT22;11540;52.130;5.648;2022-08-19T00:36:36;16.80;99.90
22747;DHT22;11540;52.130;5.648;2022-08-19T00:39:03;16.70;99.90
22747;DHT22;11540;52.130;5.648;2022-08-19T00:41:29;16.70;99.90
22747;DHT22;11540;52.130;5.648;2022-08-19T00:44:09;16.60;99.90
22747;DHT22;11540;52.130;5.648;2022-08-19T00:46:38;16.60;99.90
22747;DHT22;11540;52.130;5.648;2022-08-19T00:49:12;16.60;99.90
22747;DHT22;11540;52.130;5.648;2022-08-19T00:51:39;16.60;99.90
22747;DHT22;11540;52.130;5.648;2022-08-19T00:54:06;16.70;99.90
22747;DHT22;11540;52.130;5.648;2022-08-19T00:56:32;16.70;99.90
22747;DHT22;11540;52.130;5.648;2022-08-19T00:58:59;16.70;99.90
22747;DHT22;11540;52.130;5.648;2022-08-19T01:01:27;16.60;99.90
22747;DHT22;11540;52.130;5.648;2022-08-19T01:03:52;16.60;99.90
22747;DHT22;11540;52.130;5.648;2022-08-19T01:06:18;16.50;99.90
22747;DHT22;11540;52.130;5.648;2022-08-19T01:08:44;16.50;99.90
22747;DHT22;11540;52.130;5.648;2022-08-19T01:11:09;16.50;99.90
22747;DHT22;11540;52.130;5.648;2022-08-19T01:13:35;16.50;99.90
22747;DHT22;11540;52.130;5.648;2022-08-19T01:16:07;16.40;99.90
22747;DHT22;11540;52.130;5.648;2022-08-19T01:18:38;16.40;99.90
22747;DHT22;11540;52.130;5.648;2022-08-19T01:21:36;16.40;99.90
22747;DHT22;11540;52.130;5.648;2022-08-19T01:24:03;16.30;99.90
22747;DHT22;11540;52.130;5.648;2022-08-19T01:26:29;16.30;99.90
22747;DHT22;11540;52.130;5.648;2022-08-19T01:28:57;16.30;99.90
22747;DHT22;11540;52.130;5.648;2022-08-19T01:31:26;16.20;99.90
22747;DHT22;11540;52.130;5.648;2022-08-19T01:33:52;16.20;99.90
22747;DHT22;11540;52.130;5.648;2022-08-19T01:36:25;16.20;99.90
22747;DHT22;11540;52.130;5.648;2022-08-19T01:38:51;16.10;99.90
22747;DHT22;11540;52.130;5.648;2022-08-19T01:41:18;16.10;99.90
22747;DHT22;11540;52.130;5.648;2022-08-19T01:43:43;16.10;99.90
22747;DHT22;11540;52.130;5.648;2022-08-19T01:46:10;16.00;99.90
22747;DHT22;11540;52.130;5.648;2022-08-19T01:48:38;15.90;99.90
22747;DHT22;11540;52.130;5.648;2022-08-19T01:51:04;15.90;99.90
22747;DHT22;11540;52.130;5.648;2022-08-19T01:53:30;15.90;99.90
22747;DHT22;11540;52.130;5.648;2022-08-19T01:55:55;15.90;99.90
22747;DHT22;11540;52.130;5.648;2022-08-19T01:58:25;15.90;99.90
22747;DHT22;11540;52.130;5.648;2022-08-19T02:00:51;15.90;99.90
22747;DHT22;11540;52.130;5.648;2022-08-19T02:03:17;15.80;99.90
22747;DHT22;11540;52.130;5.648;2022-08-19T02:05:43;15.70;99.90
22747;DHT22;11540;52.130;5.648;2022-08-19T02:08:10;15.60;99.90
22747;DHT22;11540;52.130;5.648;2022-08-19T02:10:39;15.60;99.90
22747;DHT22;11540;52.130;5.648;2022-08-19T02:13:06;15.60;99.90
22747;DHT22;11540;52.130;5.648;2022-08-19T02:15:31;15.50;99.90
22747;DHT22;11540;52.130;5.648;2022-08-19T02:17:57;15.60;99.90
22747;DHT22;11540;52.130;5.648;2022-08-19T02:20:23;15.60;99.90
22747;DHT22;11540;52.130;5.648;2022-08-19T02:22:49;15.60;99.90
22747;DHT22;11540;52.130;5.648;2022-08-19T02:25:14;15.60;99.90
22747;DHT22;11540;52.130;5.648;2022-08-19T02:27:42;15.60;99.90
22747;DHT22;11540;52.130;5.648;2022-08-19T02:30:11;15.50;99.90
22747;DHT22;11540;52.130;5.648;2022-08-19T02:32:36;15.50;99.90
22747;DHT22;11540;52.130;5.648;2022-08-19T02:35:02;15.50;99.90
22747;DHT22;11540;52.130;5.648;2022-08-19T02:37:28;15.40;99.90
22747;DHT22;11540;52.130;5.648;2022-08-19T02:40:12;15.60;99.90
22747;DHT22;11540;52.130;5.648;2022-08-19T02:42:38;15.60;99.90
22747;DHT22;11540;52.130;5.648;2022-08-19T02:45:06;15.60;99.90
22747;DHT22;11540;52.130;5.648;2022-08-19T02:47:33;15.60;99.90
22747;DHT22;11540;52.130;5.648;2022-08-19T02:50:01;15.50;99.90
22747;DHT22;11540;52.130;5.648;2022-08-19T02:52:26;15.50;99.90
22747;DHT22;11540;52.130;5.648;2022-08-19T02:54:52;15.50;99.90
22747;DHT22;11540;52.130;5.648;2022-08-19T02:57:18;15.50;99.90
22747;DHT22;11540;52.130;5.648;2022-08-19T02:59:43;15.40;99.90
22747;DHT22;11540;52.130;5.648;2022-08-19T03:02:09;15.40;99.90
22747;DHT22;11540;52.130;5.648;2022-08-19T03:04:34;15.40;99.90
22747;DHT22;11540;52.130;5.648;2022-08-19T03:07:00;15.20;99.90
22747;DHT22;11540;52.130;5.648;2022-08-19T03:09:25;15.10;99.90
22747;DHT22;11540;52.130;5.648;2022-08-19T03:11:51;15.00;99.90
22747;DHT22;11540;52.130;5.648;2022-08-19T03:14:16;14.90;99.90
22747;DHT22;11540;52.130;5.648;2022-08-19T03:16:48;14.90;99.90
22747;DHT22;11540;52.130;5.648;2022-08-19T03:19:16;14.90;99.90
22747;DHT22;11540;52.130;5.648;2022-08-19T03:21:43;15.00;99.90
22747;DHT22;11540;52.130;5.648;2022-08-19T03:24:10;15.00;99.90
22747;DHT22;11540;52.130;5.648;2022-08-19T03:26:41;15.10;99.90
22747;DHT22;11540;52.130;5.648;2022-08-19T03:29:07;15.20;99.90
22747;DHT22;11540;52.130;5.648;2022-08-19T03:31:37;15.30;99.90
22747;DHT22;11540;52.130;5.648;2022-08-19T03:34:02;15.40;99.90
22747;DHT22;11540;52.130;5.648;2022-08-19T03:36:28;15.40;99.90
22747;DHT22;11540;52.130;5.648;2022-08-19T03:38:59;15.50;99.90
22747;DHT22;11540;52.130;5.648;2022-08-19T03:41:27;15.50;99.90
22747;DHT22;11540;52.130;5.648;2022-08-19T03:43:54;15.50;99.90
22747;DHT22;11540;52.130;5.648;2022-08-19T03:46:22;15.40;99.90
22747;DHT22;11540;52.130;5.648;2022-08-19T03:48:50;15.40;99.90
22747;DHT22;11540;52.130;5.648;2022-08-19T03:51:36;15.20;99.90
22747;DHT22;11540;52.130;5.648;2022-08-19T03:54:08;15.20;99.90
22747;DHT22;11540;52.130;5.648;2022-08-19T03:56:35;15.20;99.90
22747;DHT22;11540;52.130;5.648;2022-08-19T03:59:02;15.20;99.90
22747;DHT22;11540;52.130;5.648;2022-08-19T04:01:28;15.30;99.90
22747;DHT22;11540;52.130;5.648;2022-08-19T04:03:58;15.40;99.90
22747;DHT22;11540;52.130;5.648;2022-08-19T04:06:28;15.30;99.90
22747;DHT22;11540;52.130;5.648;2022-08-19T04:08:56;15.30;99.90
22747;DHT22;11540;52.130;5.648;2022-08-19T04:11:26;15.30;99.90
22747;DHT22;11540;52.130;5.648;2022-08-19T04:13:53;15.20;99.90
22747;DHT22;11540;52.130;5.648;2022-08-19T04:16:20;15.20;99.90
22747;DHT22;11540;52.130;5.648;2022-08-19T04:18:47;15.30;99.90
22747;DHT22;11540;52.130;5.648;2022-08-19T04:21:18;15.30;99.90
22747;DHT22;11540;52.130;5.648;2022-08-19T04:23:45;15.40;99.90
22747;DHT22;11540;52.130;5.648;2022-08-19T04:26:19;15.40;99.90
22747;DHT22;11540;52.130;5.648;2022-08-19T04:28:46;15.40;99.90
22747;DHT22;11540;52.130;5.648;2022-08-19T04:31:19;15.40;99.90
22747;DHT22;11540;52.130;5.648;2022-08-19T04:33:44;15.40;99.90
22747;DHT22;11540;52.130;5.648;2022-08-19T04:36:21;15.40;99.90
22747;DHT22;11540;52.130;5.648;2022-08-19T04:38:47;15.40;99.90
22747;DHT22;11540;52.130;5.648;2022-08-19T04:41:13;15.40;99.90
22747;DHT22;11540;52.130;5.648;2022-08-19T04:44:02;15.40;99.90
22747;DHT22;11540;52.130;5.648;2022-08-19T04:46:28;15.50;99.90
22747;DHT22;11540;52.130;5.648;2022-08-19T04:48:55;15.50;99.90
22747;DHT22;11540;52.130;5.648;2022-08-19T04:51:22;15.40;99.90
22747;DHT22;11540;52.130;5.648;2022-08-19T04:53:49;15.40;99.90
22747;DHT22;11540;52.130;5.648;2022-08-19T04:56:16;15.30;99.90
22747;DHT22;11540;52.130;5.648;2022-08-19T04:58:44;15.30;99.90
22747;DHT22;11540;52.130;5.648;2022-08-19T05:01:20;15.40;99.90
22747;DHT22;11540;52.130;5.648;2022-08-19T05:03:45;15.40;99.90
22747;DHT22;11540;52.130;5.648;2022-08-19T05:06:13;15.40;99.90
22747;DHT22;11540;52.130;5.648;2022-08-19T05:08:41;15.40;99.90
22747;DHT22;11540;52.130;5.648;2022-08-19T05:11:11;15.50;99.90
22747;DHT22;11540;52.130;5.648;2022-08-19T05:13:37;15.40;99.90
22747;DHT22;11540;52.130;5.648;2022-08-19T05:16:04;15.50;99.90
22747;DHT22;11540;52.130;5.648;2022-08-19T05:18:29;15.50;99.90
22747;DHT22;11540;52.130;5.648;2022-08-19T05:21:18;15.50;99.90
22747;DHT22;11540;52.130;5.648;2022-08-19T05:24:04;15.50;99.90
22747;DHT22;11540;52.130;5.648;2022-08-19T05:26:35;15.60;99.90
22747;DHT22;11540;52.130;5.648;2022-08-19T05:29:01;15.60;99.90
22747;DHT22;11540;52.130;5.648;2022-08-19T05:31:26;15.50;99.90
22747;DHT22;11540;52.130;5.648;2022-08-19T05:33:52;15.50;99.90
22747;DHT22;11540;52.130;5.648;2022-08-19T05:36:17;15.50;99.90
22747;DHT22;11540;52.130;5.648;2022-08-19T05:38:45;15.50;99.90
22747;DHT22;11540;52.130;5.648;2022-08-19T05:41:12;15.50;99.90
22747;DHT22;11540;52.130;5.648;2022-08-19T05:43:38;15.50;99.90
22747;DHT22;11540;52.130;5.648;2022-08-19T05:46:05;15.50;99.90
22747;DHT22;11540;52.130;5.648;2022-08-19T05:48:34;15.50;99.90
22747;DHT22;11540;52.130;5.648;2022-08-19T05:51:05;15.50;99.90
22747;DHT22;11540;52.130;5.648;2022-08-19T05:53:32;15.60;99.90
22747;DHT22;11540;52.130;5.648;2022-08-19T05:55:57;15.60;99.90
22747;DHT22;11540;52.130;5.648;2022-08-19T05:58:23;15.70;99.90
22747;DHT22;11540;52.130;5.648;2022-08-19T06:00:50;15.80;99.90
22747;DHT22;11540;52.130;5.648;2022-08-19T06:03:15;15.90;99.90
22747;DHT22;11540;52.130;5.648;2022-08-19T06:05:41;16.10;99.90
22747;DHT22;11540;52.130;5.648;2022-08-19T06:08:07;16.20;99.90
22747;DHT22;11540;52.130;5.648;2022-08-19T06:10:33;16.30;99.90
22747;DHT22;11540;52.130;5.648;2022-08-19T06:12:58;16.40;99.90
22747;DHT22;11540;52.130;5.648;2022-08-19T06:15:24;16.50;99.90
22747;DHT22;11540;52.130;5.648;2022-08-19T06:17:53;16.70;99.90
22747;DHT22;11540;52.130;5.648;2022-08-19T06:20:18;16.90;99.90
22747;DHT22;11540;52.130;5.648;2022-08-19T06:22:47;17.00;99.90
22747;DHT22;11540;52.130;5.648;2022-08-19T06:25:15;17.20;99.90
22747;DHT22;11540;52.130;5.648;2022-08-19T06:27:41;17.40;99.90
22747;DHT22;11540;52.130;5.648;2022-08-19T06:30:07;17.60;99.90
22747;DHT22;11540;52.130;5.648;2022-08-19T06:32:33;17.70;99.90
22747;DHT22;11540;52.130;5.648;2022-08-19T06:34:59;17.90;99.90
22747;DHT22;11540;52.130;5.648;2022-08-19T06:37:24;18.00;99.90
22747;DHT22;11540;52.130;5.648;2022-08-19T06:39:50;18.30;99.90
22747;DHT22;11540;52.130;5.648;2022-08-19T06:42:16;18.40;99.90
22747;DHT22;11540;52.130;5.648;2022-08-19T06:44:45;18.50;99.90
22747;DHT22;11540;52.130;5.648;2022-08-19T06:47:14;18.50;99.90
22747;DHT22;11540;52.130;5.648;2022-08-19T06:49:41;18.60;99.90
22747;DHT22;11540;52.130;5.648;2022-08-19T06:52:07;18.70;99.90
22747;DHT22;11540;52.130;5.648;2022-08-19T06:54:33;18.70;99.90
22747;DHT22;11540;52.130;5.648;2022-08-19T06:57:00;18.80;99.90
22747;DHT22;11540;52.130;5.648;2022-08-19T06:59:31;18.90;99.90
22747;DHT22;11540;52.130;5.648;2022-08-19T07:02:00;19.00;99.90
22747;DHT22;11540;52.130;5.648;2022-08-19T07:04:29;19.10;99.90
22747;DHT22;11540;52.130;5.648;2022-08-19T07:07:02;19.20;99.90
22747;DHT22;11540;52.130;5.648;2022-08-19T07:09:29;19.30;99.90
22747;DHT22;11540;52.130;5.648;2022-08-19T07:11:54;19.40;99.90
22747;DHT22;11540;52.130;5.648;2022-08-19T07:14:24;19.60;99.90
22747;DHT22;11540;52.130;5.648;2022-08-19T07:16:52;19.70;99.90
22747;DHT22;11540;52.130;5.648;2022-08-19T07:19:19;19.80;99.90
22747;DHT22;11540;52.130;5.648;2022-08-19T07:21:49;19.90;99.90
22747;DHT22;11540;52.130;5.648;2022-08-19T07:24:15;20.00;99.90
22747;DHT22;11540;52.130;5.648;2022-08-19T07:26:42;20.10;99.90
22747;DHT22;11540;52.130;5.648;2022-08-19T07:29:09;20.10;99.90
22747;DHT22;11540;52.130;5.648;2022-08-19T07:31:35;20.10;99.90
22747;DHT22;11540;52.130;5.648;2022-08-19T07:34:07;20.00;99.90
22747;DHT22;11540;52.130;5.648;2022-08-19T07:36:35;20.00;99.90
22747;DHT22;11540;52.130;5.648;2022-08-19T07:39:04;20.00;99.90
22747;DHT22;11540;52.130;5.648;2022-08-19T07:41:31;20.10;99.90
22747;DHT22;11540;52.130;5.648;2022-08-19T07:43:59;20.10;99.90
22747;DHT22;11540;52.130;5.648;2022-08-19T07:46:31;20.20;99.90
22747;DHT22;11540;52.130;5.648;2022-08-19T07:48:57;20.10;99.90
22747;DHT22;11540;52.130;5.648;2022-08-19T07:51:23;20.10;99.90
22747;DHT22;11540;52.130;5.648;2022-08-19T07:53:49;20.20;99.90
22747;DHT22;11540;52.130;5.648;2022-08-19T07:56:17;20.20;99.90
22747;DHT22;11540;52.130;5.648;2022-08-19T07:58:44;20.30;99.90
22747;DHT22;11540;52.130;5.648;2022-08-19T08:01:16;20.50;99.90
22747;DHT22;11540;52.130;5.648;2022-08-19T08:03:42;20.40;99.90
22747;DHT22;11540;52.130;5.648;2022-08-19T08:06:26;20.40;99.90
22747;DHT22;11540;52.130;5.648;2022-08-19T08:09:11;20.40;99.90
22747;DHT22;11540;52.130;5.648;2022-08-19T08:11:38;20.50;99.90
22747;DHT22;11540;52.130;5.648;2022-08-19T08:14:04;20.70;99.90
22747;DHT22;11540;52.130;5.648;2022-08-19T08:16:32;20.70;99.90
22747;DHT22;11540;52.130;5.648;2022-08-19T08:18:58;20.80;99.90
22747;DHT22;11540;52.130;5.648;2022-08-19T08:21:24;20.90;99.90
22747;DHT22;11540;52.130;5.648;2022-08-19T08:23:50;21.00;99.90
22747;DHT22;11540;52.130;5.648;2022-08-19T08:26:17;21.00;99.90
22747;DHT22;11540;52.130;5.648;2022-08-19T08:28:42;21.00;99.90
22747;DHT22;11540;52.130;5.648;2022-08-19T08:31:08;21.10;99.90
22747;DHT22;11540;52.130;5.648;2022-08-19T08:33:34;21.10;99.90
22747;DHT22;11540;52.130;5.648;2022-08-19T08:36:01;20.90;99.90
22747;DHT22;11540;52.130;5.648;2022-08-19T08:38:26;21.10;99.90
22747;DHT22;11540;52.130;5.648;2022-08-19T08:40:59;21.50;99.90
22747;DHT22;11540;52.130;5.648;2022-08-19T08:43:40;22.00;99.90
22747;DHT22;11540;52.130;5.648;2022-08-19T08:46:13;22.30;99.90
22747;DHT22;11540;52.130;5.648;2022-08-19T08:48:56;22.50;99.90
22747;DHT22;11540;52.130;5.648;2022-08-19T08:51:32;22.80;99.90
22747;DHT22;11540;52.130;5.648;2022-08-19T08:53:59;22.70;99.90
22747;DHT22;11540;52.130;5.648;2022-08-19T08:56:24;22.60;99.90
22747;DHT22;11540;52.130;5.648;2022-08-19T08:59:04;22.50;99.90
22747;DHT22;11540;52.130;5.648;2022-08-19T09:01:35;22.30;99.90
22747;DHT22;11540;52.130;5.648;2022-08-19T09:04:05;22.40;99.90
22747;DHT22;11540;52.130;5.648;2022-08-19T09:06:38;22.60;99.90
22747;DHT22;11540;52.130;5.648;2022-08-19T09:09:14;22.70;99.90
22747;DHT22;11540;52.130;5.648;2022-08-19T09:17:07;22.50;99.90
22747;DHT22;11540;52.130;5.648;2022-08-19T09:19:48;22.40;99.90
22747;DHT22;11540;52.130;5.648;2022-08-19T09:22:13;22.30;99.90
22747;DHT22;11540;52.130;5.648;2022-08-19T09:24:39;22.30;99.90
22747;DHT22;11540;52.130;5.648;2022-08-19T09:27:06;22.30;99.90
22747;DHT22;11540;52.130;5.648;2022-08-19T09:29:31;22.40;99.90
22747;DHT22;11540;52.130;5.648;2022-08-19T09:31:57;22.50;99.90
22747;DHT22;11540;52.130;5.648;2022-08-19T09:34:22;22.60;99.90
22747;DHT22;11540;52.130;5.648;2022-08-19T09:36:49;22.80;99.90
22747;DHT22;11540;52.130;5.648;2022-08-19T09:39:18;23.00;99.90
22747;DHT22;11540;52.130;5.648;2022-08-19T09:41:44;23.10;99.90
22747;DHT22;11540;52.130;5.648;2022-08-19T09:44:09;23.30;99.90
22747;DHT22;11540;52.130;5.648;2022-08-19T09:46:36;23.30;99.90
22747;DHT22;11540;52.130;5.648;2022-08-19T09:49:02;23.40;99.90
22747;DHT22;11540;52.130;5.648;2022-08-19T09:51:29;23.40;99.90
22747;DHT22;11540;52.130;5.648;2022-08-19T09:53:59;23.60;99.90
22747;DHT22;11540;52.130;5.648;2022-08-19T09:56:25;23.70;99.90
22747;DHT22;11540;52.130;5.648;2022-08-19T09:58:51;23.90;99.90
22747;DHT22;11540;52.130;5.648;2022-08-19T10:01:19;24.20;99.90
22747;DHT22;11540;52.130;5.648;2022-08-19T10:03:48;24.50;99.90
22747;DHT22;11540;52.130;5.648;2022-08-19T10:06:14;24.70;99.90
22747;DHT22;11540;52.130;5.648;2022-08-19T10:08:41;25.20;99.90
22747;DHT22;11540;52.130;5.648;2022-08-19T10:11:06;25.20;99.90
22747;DHT22;11540;52.130;5.648;2022-08-19T10:13:32;25.20;99.90
22747;DHT22;11540;52.130;5.648;2022-08-19T10:16:06;25.30;99.90
22747;DHT22;11540;52.130;5.648;2022-08-19T10:18:33;25.30;99.90
22747;DHT22;11540;52.130;5.648;2022-08-19T10:21:14;25.30;99.90
22747;DHT22;11540;52.130;5.648;2022-08-19T10:23:43;25.40;99.90
22747;DHT22;11540;52.130;5.648;2022-08-19T10:26:11;25.70;99.90
22747;DHT22;11540;52.130;5.648;2022-08-19T10:28:37;25.60;99.90
22747;DHT22;11540;52.130;5.648;2022-08-19T10:31:06;26.00;99.90
22747;DHT22;11540;52.130;5.648;2022-08-19T10:33:32;26.10;99.90
22747;DHT22;11540;52.130;5.648;2022-08-19T10:36:09;26.60;99.90
22747;DHT22;11540;52.130;5.648;2022-08-19T10:38:36;26.90;99.90
22747;DHT22;11540;52.130;5.648;2022-08-19T10:41:14;27.30;99.90
22747;DHT22;11540;52.130;5.648;2022-08-19T10:43:41;27.40;99.90
22747;DHT22;11540;52.130;5.648;2022-08-19T10:46:09;27.30;99.90
22747;DHT22;11540;52.130;5.648;2022-08-19T10:48:35;27.60;99.90
22747;DHT22;11540;52.130;5.648;2022-08-19T10:51:02;27.40;99.90
22747;DHT22;11540;52.130;5.648;2022-08-19T10:53:46;27.10;99.90
22747;DHT22;11540;52.130;5.648;2022-08-19T10:56:12;26.80;99.90
22747;DHT22;11540;52.130;5.648;2022-08-19T10:58:57;27.10;99.90
22747;DHT22;11540;52.130;5.648;2022-08-19T11:01:24;27.30;99.90
22747;DHT22;11540;52.130;5.648;2022-08-19T11:03:50;27.70;99.90
22747;DHT22;11540;52.130;5.648;2022-08-19T11:06:15;27.90;99.90
22747;DHT22;11540;52.130;5.648;2022-08-19T11:08:41;28.10;99.90
22747;DHT22;11540;52.130;5.648;2022-08-19T11:11:11;28.50;99.90
22747;DHT22;11540;52.130;5.648;2022-08-19T11:13:37;28.20;99.90
22747;DHT22;11540;52.130;5.648;2022-08-19T11:16:06;27.40;99.90
22747;DHT22;11540;52.130;5.648;2022-08-19T11:18:37;26.90;99.90
22747;DHT22;11540;52.130;5.648;2022-08-19T11:21:11;26.30;99.90
22747;DHT22;11540;52.130;5.648;2022-08-19T11:23:37;26.80;99.90
22747;DHT22;11540;52.130;5.648;2022-08-19T11:26:03;27.60;99.90
22747;DHT22;11540;52.130;5.648;2022-08-19T11:28:28;28.40;99.90
22747;DHT22;11540;52.130;5.648;2022-08-19T11:30:54;29.40;99.90
22747;DHT22;11540;52.130;5.648;2022-08-19T11:33:19;30.00;99.90
22747;DHT22;11540;52.130;5.648;2022-08-19T11:35:44;30.20;99.90
22747;DHT22;11540;52.130;5.648;2022-08-19T11:38:10;29.50;99.90
22747;DHT22;11540;52.130;5.648;2022-08-19T11:40:36;29.30;99.90
22747;DHT22;11540;52.130;5.648;2022-08-19T11:43:02;29.50;99.90
22747;DHT22;11540;52.130;5.648;2022-08-19T11:45:27;28.80;99.90
22747;DHT22;11540;52.130;5.648;2022-08-19T11:47:53;28.40;99.90
22747;DHT22;11540;52.130;5.648;2022-08-19T11:50:18;28.20;99.90
22747;DHT22;11540;52.130;5.648;2022-08-19T11:52:44;28.70;99.90
22747;DHT22;11540;52.130;5.648;2022-08-19T11:55:10;29.30;99.90
22747;DHT22;11540;52.130;5.648;2022-08-19T11:57:36;29.80;99.90
22747;DHT22;11540;52.130;5.648;2022-08-19T12:00:02;30.40;99.90
22747;DHT22;11540;52.130;5.648;2022-08-19T12:02:29;30.20;99.90
22747;DHT22;11540;52.130;5.648;2022-08-19T12:04:54;30.60;99.90
22747;DHT22;11540;52.130;5.648;2022-08-19T12:07:20;31.20;99.90
22747;DHT22;11540;52.130;5.648;2022-08-19T12:09:46;31.60;99.90
22747;DHT22;11540;52.130;5.648;2022-08-19T12:12:11;31.60;99.90
22747;DHT22;11540;52.130;5.648;2022-08-19T12:14:37;31.20;99.90
22747;DHT22;11540;52.130;5.648;2022-08-19T12:17:02;31.20;99.90
22747;DHT22;11540;52.130;5.648;2022-08-19T12:19:30;30.90;99.90
22747;DHT22;11540;52.130;5.648;2022-08-19T12:21:58;30.90;99.90
22747;DHT22;11540;52.130;5.648;2022-08-19T12:24:26;30.70;99.90
22747;DHT22;11540;52.130;5.648;2022-08-19T12:26:51;30.90;99.90
22747;DHT22;11540;52.130;5.648;2022-08-19T12:29:16;30.70;99.90
22747;DHT22;11540;52.130;5.648;2022-08-19T12:31:42;30.40;99.90
22747;DHT22;11540;52.130;5.648;2022-08-19T12:34:08;30.00;99.90
22747;DHT22;11540;52.130;5.648;2022-08-19T12:36:33;29.50;99.90
22747;DHT22;11540;52.130;5.648;2022-08-19T12:38:59;28.90;99.90
22747;DHT22;11540;52.130;5.648;2022-08-19T12:41:25;28.20;99.90
22747;DHT22;11540;52.130;5.648;2022-08-19T12:43:50;28.10;99.90
22747;DHT22;11540;52.130;5.648;2022-08-19T12:46:16;28.80;99.90
22747;DHT22;11540;52.130;5.648;2022-08-19T12:48:42;29.30;99.90
22747;DHT22;11540;52.130;5.648;2022-08-19T12:51:10;29.30;99.90
22747;DHT22;11540;52.130;5.648;2022-08-19T12:53:36;29.00;99.90
22747;DHT22;11540;52.130;5.648;2022-08-19T12:56:01;28.50;99.90
22747;DHT22;11540;52.130;5.648;2022-08-19T12:58:27;27.80;99.90
22747;DHT22;11540;52.130;5.648;2022-08-19T13:00:54;27.30;99.90
22747;DHT22;11540;52.130;5.648;2022-08-19T13:03:19;27.20;99.90
22747;DHT22;11540;52.130;5.648;2022-08-19T13:05:45;26.80;99.90
22747;DHT22;11540;52.130;5.648;2022-08-19T13:08:10;26.30;99.90
22747;DHT22;11540;52.130;5.648;2022-08-19T13:10:36;25.90;99.90
22747;DHT22;11540;52.130;5.648;2022-08-19T13:13:06;25.80;99.90
22747;DHT22;11540;52.130;5.648;2022-08-19T13:15:36;25.70;99.90
22747;DHT22;11540;52.130;5.648;2022-08-19T13:18:02;25.40;99.90
22747;DHT22;11540;52.130;5.648;2022-08-19T13:20:28;25.40;99.90
22747;DHT22;11540;52.130;5.648;2022-08-19T13:22:54;25.40;99.90
22747;DHT22;11540;52.130;5.648;2022-08-19T13:25:19;25.30;99.90
22747;DHT22;11540;52.130;5.648;2022-08-19T13:27:46;25.10;99.90
22747;DHT22;11540;52.130;5.648;2022-08-19T13:30:13;24.90;99.90
22747;DHT22;11540;52.130;5.648;2022-08-19T13:32:57;24.70;99.90
22747;DHT22;11540;52.130;5.648;2022-08-19T13:38:07;24.20;99.90
22747;DHT22;11540;52.130;5.648;2022-08-19T13:40:33;24.00;99.90
22747;DHT22;11540;52.130;5.648;2022-08-19T13:43:02;23.90;99.90
22747;DHT22;11540;52.130;5.648;2022-08-19T13:45:28;23.80;99.90
22747;DHT22;11540;52.130;5.648;2022-08-19T13:47:55;23.60;99.90
22747;DHT22;11540;52.130;5.648;2022-08-19T13:50:25;23.40;99.90
22747;DHT22;11540;52.130;5.648;2022-08-19T13:52:51;23.30;99.90
22747;DHT22;11540;52.130;5.648;2022-08-19T13:55:17;23.20;99.90
22747;DHT22;11540;52.130;5.648;2022-08-19T13:57:42;23.20;99.90
22747;DHT22;11540;52.130;5.648;2022-08-19T14:00:09;23.00;99.90
22747;DHT22;11540;52.130;5.648;2022-08-19T14:02:38;22.90;99.90
22747;DHT22;11540;52.130;5.648;2022-08-19T14:05:05;23.00;99.90
22747;DHT22;11540;52.130;5.648;2022-08-19T14:07:31;22.90;99.90
22747;DHT22;11540;52.130;5.648;2022-08-19T14:09:57;22.90;99.90
22747;DHT22;11540;52.130;5.648;2022-08-19T14:12:22;22.90;99.90
22747;DHT22;11540;52.130;5.648;2022-08-19T14:14:48;22.80;99.90
22747;DHT22;11540;52.130;5.648;2022-08-19T14:17:13;22.60;99.90
22747;DHT22;11540;52.130;5.648;2022-08-19T14:19:38;22.20;99.90
22747;DHT22;11540;52.130;5.648;2022-08-19T14:22:04;22.00;99.90
22747;DHT22;11540;52.130;5.648;2022-08-19T14:24:30;21.80;99.90
22747;DHT22;11540;52.130;5.648;2022-08-19T14:26:57;21.70;99.90
22747;DHT22;11540;52.130;5.648;2022-08-19T14:29:23;21.50;99.90
22747;DHT22;11540;52.130;5.648;2022-08-19T14:31:48;21.40;99.90
22747;DHT22;11540;52.130;5.648;2022-08-19T14:34:14;21.20;99.90
22747;DHT22;11540;52.130;5.648;2022-08-19T14:36:39;21.00;99.90
22747;DHT22;11540;52.130;5.648;2022-08-19T14:39:07;20.90;99.90
22747;DHT22;11540;52.130;5.648;2022-08-19T14:41:33;20.80;99.90
22747;DHT22;11540;52.130;5.648;2022-08-19T14:43:59;20.90;99.90
22747;DHT22;11540;52.130;5.648;2022-08-19T14:46:26;20.90;99.90
22747;DHT22;11540;52.130;5.648;2022-08-19T14:48:52;20.90;99.90
22747;DHT22;11540;52.130;5.648;2022-08-19T14:51:17;20.90;99.90
22747;DHT22;11540;52.130;5.648;2022-08-19T14:53:43;21.00;99.90
22747;DHT22;11540;52.130;5.648;2022-08-19T14:56:09;21.10;99.90
22747;DHT22;11540;52.130;5.648;2022-08-19T14:58:35;21.10;99.90
22747;DHT22;11540;52.130;5.648;2022-08-19T15:01:01;21.20;99.90
22747;DHT22;11540;52.130;5.648;2022-08-19T15:03:27;21.40;99.90
22747;DHT22;11540;52.130;5.648;2022-08-19T15:05:53;21.50;99.90
22747;DHT22;11540;52.130;5.648;2022-08-19T15:08:18;21.60;99.90
22747;DHT22;11540;52.130;5.648;2022-08-19T15:10:43;21.80;99.90
22747;DHT22;11540;52.130;5.648;2022-08-19T15:13:09;21.80;99.90
22747;DHT22;11540;52.130;5.648;2022-08-19T15:15:35;21.90;99.90
22747;DHT22;11540;52.130;5.648;2022-08-19T15:18:00;22.00;99.90
22747;DHT22;11540;52.130;5.648;2022-08-19T15:20:28;22.10;99.90
22747;DHT22;11540;52.130;5.648;2022-08-19T15:22:53;22.10;99.90
22747;DHT22;11540;52.130;5.648;2022-08-19T15:25:19;22.20;99.90
22747;DHT22;11540;52.130;5.648;2022-08-19T15:27:45;22.20;99.90
22747;DHT22;11540;52.130;5.648;2022-08-19T15:30:11;22.30;99.90
22747;DHT22;11540;52.130;5.648;2022-08-19T15:32:37;22.30;99.90
22747;DHT22;11540;52.130;5.648;2022-08-19T15:35:03;22.40;99.90
22747;DHT22;11540;52.130;5.648;2022-08-19T15:37:29;22.60;99.90
22747;DHT22;11540;52.130;5.648;2022-08-19T15:39:55;22.90;99.90
22747;DHT22;11540;52.130;5.648;2022-08-19T15:42:20;23.00;99.90